createdAt,value
2019-05-30T00:00:30.192Z,15.80
2019-05-30T00:03:02.218Z,15.80
2019-05-30T00:05:34.143Z,15.80
2019-05-30T00:08:04.873Z,15.80
2019-05-30T00:10:35.685Z,15.80
2019-05-30T00:13:06.417Z,15.70
2019-05-30T00:15:39.117Z,15.70
2019-05-30T00:18:09.973Z,15.70
2019-05-30T00:20:40.699Z,15.70
2019-05-30T00:23:11.341Z,15.70
2019-05-30T00:25:42.976Z,15.70
2019-05-30T00:28:13.849Z,15.60
2019-05-30T00:30:44.453Z,15.60
2019-05-30T00:33:16.518Z,15.60
2019-05-30T00:35:47.362Z,15.60
2019-05-30T00:38:18.106Z,15.50
2019-05-30T00:40:48.803Z,15.50
2019-05-30T00:43:19.421Z,15.50
2019-05-30T00:45:51.374Z,15.50
2019-05-30T00:48:21.997Z,15.50
2019-05-30T00:50:52.622Z,15.40
2019-05-30T00:53:23.258Z,15.40
2019-05-30T00:55:55.031Z,15.40
2019-05-30T00:58:25.712Z,15.40
2019-05-30T01:00:56.788Z,15.30
2019-05-30T01:03:27.548Z,15.20
2019-05-30T01:05:58.731Z,15.20
2019-05-30T01:08:29.494Z,15.20
2019-05-30T01:11:01.047Z,15.20
2019-05-30T01:13:31.833Z,15.20
2019-05-30T01:16:05.382Z,15.20
2019-05-30T01:18:37.319Z,15.10
2019-05-30T01:21:07.962Z,15.10
2019-05-30T01:23:40.379Z,15.20
2019-05-30T01:26:11.091Z,15.20
2019-05-30T01:28:41.946Z,15.20
2019-05-30T01:31:12.559Z,15.10
2019-05-30T01:33:45.214Z,15.20
2019-05-30T01:36:16.804Z,15.10
2019-05-30T01:38:47.442Z,15.10
2019-05-30T01:41:18.027Z,15.10
2019-05-30T01:43:48.636Z,15.20
2019-05-30T01:46:19.353Z,15.20
2019-05-30T01:48:50.098Z,15.10
2019-05-30T01:51:20.709Z,15.20
2019-05-30T01:53:51.419Z,15.10
2019-05-30T01:56:21.944Z,15.10
2019-05-30T01:58:52.615Z,15.10
2019-05-30T02:01:25.429Z,15.10
2019-05-30T02:03:56.350Z,15.10
2019-05-30T02:06:26.944Z,15.00
2019-05-30T02:08:57.550Z,15.00
2019-05-30T02:11:28.082Z,14.90
2019-05-30T02:13:59.780Z,14.90
2019-05-30T02:16:30.787Z,14.90
2019-05-30T02:19:01.642Z,14.80
2019-05-30T02:21:32.225Z,14.80
2019-05-30T02:24:04.051Z,14.80
2019-05-30T02:26:34.649Z,14.80
2019-05-30T02:29:06.255Z,14.70
2019-05-30T02:31:39.341Z,14.70
2019-05-30T02:34:12.174Z,14.70
2019-05-30T02:36:43.050Z,14.70
2019-05-30T02:39:13.252Z,14.70
2019-05-30T02:41:44.058Z,14.70
2019-05-30T02:44:15.726Z,14.70
2019-05-30T02:46:46.414Z,14.70
2019-05-30T02:49:17.230Z,14.70
2019-05-30T02:51:47.840Z,14.70
2019-05-30T02:54:20.531Z,14.70
2019-05-30T02:56:51.183Z,14.70
2019-05-30T02:59:21.991Z,14.70
2019-05-30T03:02:00.912Z,14.70
2019-05-30T03:04:25.970Z,14.70
2019-05-30T03:06:56.607Z,14.70
2019-05-30T03:09:28.902Z,14.70
2019-05-30T03:12:01.888Z,14.60
2019-05-30T03:14:34.218Z,14.60
2019-05-30T03:17:07.151Z,14.60
2019-05-30T03:19:37.422Z,14.50
2019-05-30T03:22:09.504Z,14.50
2019-05-30T03:24:41.355Z,14.40
2019-05-30T03:27:14.014Z,14.40
2019-05-30T03:29:44.707Z,14.40
2019-05-30T03:33:00.327Z,14.40
2019-05-30T03:34:50.647Z,14.40
2019-05-30T03:37:28.554Z,14.40
2019-05-30T03:39:53.966Z,14.50
2019-05-30T03:42:24.821Z,14.40
2019-05-30T03:44:56.633Z,14.50
2019-05-30T03:47:30.306Z,14.50
2019-05-30T03:50:04.609Z,14.60
2019-05-30T03:52:35.134Z,14.60
2019-05-30T03:55:09.988Z,14.70
2019-05-30T03:57:43.075Z,14.80
2019-05-30T04:00:36.465Z,15.20
2019-05-30T04:03:11.669Z,15.70
2019-05-30T04:05:46.260Z,16.30
2019-05-30T04:08:19.664Z,16.70
2019-05-30T04:10:53.499Z,16.80
2019-05-30T04:13:27.162Z,17.00
2019-05-30T04:15:57.916Z,17.10
2019-05-30T04:18:28.644Z,17.10
2019-05-30T04:20:59.404Z,17.10
2019-05-30T04:23:30.047Z,16.90
2019-05-30T04:26:01.227Z,16.70
2019-05-30T04:28:31.975Z,16.60
2019-05-30T04:31:02.770Z,16.40
2019-05-30T04:33:34.015Z,16.40
2019-05-30T04:36:05.771Z,16.30
2019-05-30T04:38:36.090Z,16.20
2019-05-30T04:41:07.021Z,16.20
2019-05-30T04:43:37.644Z,16.10
2019-05-30T04:46:10.188Z,16.40
2019-05-30T04:48:40.537Z,16.50
2019-05-30T04:51:12.531Z,16.70
2019-05-30T04:53:43.468Z,17.00
2019-05-30T04:56:14.559Z,17.60
2019-05-30T04:58:45.416Z,18.20
2019-05-30T05:01:25.385Z,18.90
2019-05-30T05:03:57.221Z,19.40
2019-05-30T05:06:36.206Z,19.70
2019-05-30T05:09:08.840Z,19.70
2019-05-30T05:11:39.618Z,19.70
2019-05-30T05:14:10.273Z,19.50
2019-05-30T05:16:41.040Z,19.50
2019-05-30T05:19:12.868Z,19.50
2019-05-30T05:21:43.687Z,19.50
2019-05-30T05:24:15.491Z,19.70
2019-05-30T05:26:47.170Z,20.10
2019-05-30T05:29:17.951Z,20.60
2019-05-30T05:31:48.798Z,21.10
2019-05-30T05:34:20.618Z,21.70
2019-05-30T05:36:52.234Z,22.20
2019-05-30T05:39:22.856Z,22.70
2019-05-30T05:41:53.625Z,22.90
2019-05-30T05:44:24.563Z,23.10
2019-05-30T05:46:55.283Z,23.20
2019-05-30T05:49:25.969Z,23.50
2019-05-30T05:51:56.596Z,23.90
2019-05-30T05:54:29.233Z,24.20
2019-05-30T05:56:59.955Z,24.50
2019-05-30T05:59:30.586Z,24.80
2019-05-30T06:02:01.265Z,25.00
2019-05-30T06:04:32.899Z,25.10
2019-05-30T06:07:03.525Z,25.20
2019-05-30T06:09:34.144Z,25.40
2019-05-30T06:12:05.042Z,25.50
2019-05-30T06:14:36.574Z,25.60
2019-05-30T06:17:07.307Z,25.70
2019-05-30T06:19:46.288Z,25.90
2019-05-30T06:22:10.039Z,26.10
2019-05-30T06:24:42.128Z,26.50
2019-05-30T06:27:12.856Z,26.60
2019-05-30T06:29:43.363Z,26.60
2019-05-30T06:32:14.016Z,26.90
2019-05-30T06:34:45.583Z,27.10
2019-05-30T06:37:17.129Z,27.70
2019-05-30T06:39:47.838Z,28.20
2019-05-30T06:42:19.502Z,28.50
2019-05-30T06:44:51.175Z,28.50
2019-05-30T06:47:22.202Z,28.90
2019-05-30T06:49:52.914Z,29.40
2019-05-30T06:52:23.540Z,30.00
2019-05-30T06:54:54.938Z,30.10
2019-05-30T06:57:25.764Z,30.30
2019-05-30T06:59:56.032Z,30.60
2019-05-30T07:02:26.717Z,30.80
2019-05-30T07:04:58.571Z,30.50
2019-05-30T07:07:29.515Z,30.20
2019-05-30T07:10:00.006Z,29.90
2019-05-30T07:12:31.165Z,30.00
2019-05-30T07:15:02.708Z,30.10
2019-05-30T07:17:33.645Z,30.40
2019-05-30T07:20:05.895Z,30.40
2019-05-30T07:22:37.374Z,30.40
2019-05-30T07:25:10.288Z,30.20
2019-05-30T07:27:41.727Z,30.30
2019-05-30T07:30:14.140Z,30.50
2019-05-30T07:32:44.627Z,30.70
2019-05-30T07:35:16.229Z,30.60
2019-05-30T07:37:47.640Z,30.70
2019-05-30T07:40:19.981Z,30.00
2019-05-30T07:42:50.448Z,30.40
2019-05-30T07:45:22.003Z,30.40
2019-05-30T07:47:52.444Z,30.90
2019-05-30T07:50:23.676Z,31.10
2019-05-30T07:52:54.031Z,31.30
2019-05-30T07:55:26.856Z,31.80
2019-05-30T07:57:57.395Z,32.00
2019-05-30T08:00:27.743Z,32.60
2019-05-30T08:02:58.162Z,31.50
2019-05-30T08:05:30.622Z,31.80
2019-05-30T08:08:01.132Z,32.60
2019-05-30T08:10:32.015Z,33.20
2019-05-30T08:13:02.472Z,32.90
2019-05-30T08:15:33.811Z,31.60
2019-05-30T08:18:04.533Z,30.60
2019-05-30T08:20:36.001Z,31.00
2019-05-30T08:23:09.689Z,30.90
2019-05-30T08:25:39.271Z,30.40
2019-05-30T08:28:09.591Z,30.10
2019-05-30T08:30:39.850Z,30.90
2019-05-30T08:33:10.250Z,31.90
2019-05-30T08:35:49.183Z,32.50
2019-05-30T08:38:14.462Z,31.90
2019-05-30T08:40:44.842Z,32.20
2019-05-30T08:43:15.270Z,32.20
2019-05-30T08:45:46.647Z,31.00
2019-05-30T08:48:18.128Z,29.40
2019-05-30T08:50:48.461Z,28.60
2019-05-30T08:53:18.955Z,28.90
2019-05-30T08:55:50.310Z,29.40
2019-05-30T08:58:20.664Z,29.60
2019-05-30T09:00:50.936Z,30.00
2019-05-30T09:03:21.386Z,30.30
2019-05-30T09:06:02.569Z,30.50
2019-05-30T09:08:24.672Z,28.60
2019-05-30T09:10:56.080Z,27.20
2019-05-30T09:13:26.670Z,25.90
2019-05-30T09:15:57.156Z,25.30
2019-05-30T09:18:27.867Z,25.20
2019-05-30T09:20:58.378Z,24.80
2019-05-30T09:23:29.084Z,24.80
2019-05-30T09:26:00.161Z,24.90
2019-05-30T09:28:30.753Z,24.80
2019-05-30T09:31:01.253Z,25.00
2019-05-30T09:33:31.909Z,25.10
2019-05-30T09:36:12.586Z,25.10
2019-05-30T09:38:35.652Z,25.30
2019-05-30T09:41:06.478Z,25.30
2019-05-30T09:43:37.185Z,24.90
2019-05-30T09:46:07.873Z,24.30
2019-05-30T09:48:38.519Z,23.90
2019-05-30T09:51:09.114Z,23.70
2019-05-30T09:53:39.763Z,23.80
2019-05-30T09:56:10.477Z,23.90
2019-05-30T09:58:42.271Z,23.90
2019-05-30T10:01:13.339Z,23.80
2019-05-30T10:03:45.160Z,23.70
2019-05-30T10:06:28.543Z,24.00
2019-05-30T10:08:49.550Z,24.00
2019-05-30T10:11:21.533Z,23.50
2019-05-30T10:13:53.154Z,23.60
2019-05-30T10:16:23.828Z,23.50
2019-05-30T10:18:54.436Z,23.60
2019-05-30T10:21:25.098Z,23.70
2019-05-30T10:23:57.579Z,23.80
2019-05-30T10:26:28.193Z,23.70
2019-05-30T10:28:58.781Z,23.90
2019-05-30T10:31:29.254Z,23.90
2019-05-30T10:34:00.028Z,23.90
2019-05-30T10:36:43.365Z,24.10
2019-05-30T10:39:07.835Z,24.10
2019-05-30T10:41:38.529Z,24.10
2019-05-30T10:44:10.293Z,24.10
2019-05-30T10:46:40.808Z,24.40
2019-05-30T10:49:11.407Z,24.10
2019-05-30T10:51:42.017Z,23.50
2019-05-30T10:54:13.930Z,23.40
2019-05-30T10:56:45.148Z,23.30
2019-05-30T10:59:16.877Z,23.20
2019-05-30T11:01:48.434Z,23.10
2019-05-30T11:04:20.790Z,23.30
2019-05-30T11:07:10.151Z,23.40
2019-05-30T11:09:29.390Z,23.50
2019-05-30T11:12:00.193Z,23.30
2019-05-30T11:14:33.102Z,23.00
2019-05-30T11:17:05.446Z,22.80
2019-05-30T11:19:36.550Z,22.90
2019-05-30T11:22:07.136Z,22.70
2019-05-30T11:24:38.066Z,22.80
2019-05-30T11:27:09.628Z,22.90
2019-05-30T11:29:48.968Z,23.00
2019-05-30T11:32:24.521Z,23.20
2019-05-30T11:34:59.493Z,23.30
2019-05-30T11:37:30.321Z,23.30
2019-05-30T11:40:02.807Z,23.50
2019-05-30T11:42:33.692Z,23.10
2019-05-30T11:45:10.503Z,23.10
2019-05-30T11:47:41.079Z,22.80
2019-05-30T11:50:13.049Z,22.90
2019-05-30T11:52:44.781Z,23.10
2019-05-30T11:55:16.105Z,23.00
2019-05-30T11:57:46.743Z,23.10
2019-05-30T12:00:18.018Z,23.00
2019-05-30T12:02:48.511Z,22.80
2019-05-30T12:05:19.682Z,22.90
2019-05-30T12:07:50.709Z,23.00
2019-05-30T12:10:22.083Z,23.10
2019-05-30T12:12:53.269Z,22.90
2019-05-30T12:15:24.447Z,22.90
2019-05-30T12:17:55.306Z,22.80
2019-05-30T12:20:26.579Z,22.90
2019-05-30T12:22:57.978Z,23.00
2019-05-30T12:25:28.942Z,23.10
2019-05-30T12:28:00.131Z,23.10
2019-05-30T12:30:30.931Z,23.20
2019-05-30T12:33:02.582Z,23.30
2019-05-30T12:35:33.545Z,23.00
2019-05-30T12:38:06.572Z,23.00
2019-05-30T12:40:37.612Z,22.90
2019-05-30T12:43:08.304Z,23.00
2019-05-30T12:45:39.208Z,23.00
2019-05-30T12:48:09.817Z,23.00
2019-05-30T12:50:40.520Z,23.00
2019-05-30T12:53:11.112Z,23.00
2019-05-30T12:55:41.850Z,23.00
2019-05-30T12:58:12.565Z,23.00
2019-05-30T13:00:43.838Z,23.00
2019-05-30T13:03:14.460Z,22.90
2019-05-30T13:05:45.210Z,22.70
2019-05-30T13:08:21.565Z,22.70
2019-05-30T13:10:48.060Z,22.70
2019-05-30T13:13:18.659Z,22.70
2019-05-30T13:15:49.371Z,22.90
2019-05-30T13:18:19.965Z,22.80
2019-05-30T13:20:50.670Z,23.00
2019-05-30T13:23:21.169Z,23.20
2019-05-30T13:25:52.008Z,23.00
2019-05-30T13:28:22.486Z,22.90
2019-05-30T13:30:53.106Z,22.90
2019-05-30T13:33:23.712Z,23.00
2019-05-30T13:35:54.526Z,23.10
2019-05-30T13:38:26.823Z,23.20
2019-05-30T13:40:57.415Z,23.00
2019-05-30T13:43:28.188Z,22.90
2019-05-30T13:45:59.954Z,22.90
2019-05-30T13:48:30.960Z,23.00
2019-05-30T13:51:02.685Z,23.10
2019-05-30T13:53:34.585Z,23.30
2019-05-30T13:56:05.502Z,23.40
2019-05-30T13:58:37.306Z,23.60
2019-05-30T14:01:11.980Z,23.70
2019-05-30T14:03:40.162Z,23.50
2019-05-30T14:06:11.294Z,23.50
2019-05-30T14:08:42.254Z,23.10
2019-05-30T14:11:13.065Z,23.10
2019-05-30T14:13:43.654Z,23.30
2019-05-30T14:16:14.268Z,23.50
2019-05-30T14:18:44.753Z,23.70
2019-05-30T14:21:15.401Z,23.90
2019-05-30T14:23:45.980Z,23.90
2019-05-30T14:26:16.660Z,23.60
2019-05-30T14:28:47.162Z,23.50
2019-05-30T14:31:17.798Z,23.40
2019-05-30T14:33:48.315Z,23.40
2019-05-30T14:36:18.969Z,23.40
2019-05-30T14:38:58.359Z,23.40
2019-05-30T14:41:22.031Z,23.30
2019-05-30T14:43:53.726Z,23.40
2019-05-30T14:46:24.454Z,23.30
2019-05-30T14:48:55.068Z,23.30
2019-05-30T14:51:25.685Z,23.20
2019-05-30T14:53:57.468Z,23.10
2019-05-30T14:56:28.161Z,23.00
2019-05-30T14:58:58.774Z,23.00
2019-05-30T15:01:29.392Z,22.90
2019-05-30T15:04:00.931Z,22.90
2019-05-30T15:06:31.605Z,22.80
2019-05-30T15:09:15.430Z,22.80
2019-05-30T15:11:34.448Z,22.80
2019-05-30T15:14:06.793Z,22.60
2019-05-30T15:16:38.525Z,22.60
2019-05-30T15:19:10.025Z,22.60
2019-05-30T15:21:40.938Z,22.60
2019-05-30T15:24:13.186Z,22.60
2019-05-30T15:26:44.964Z,22.50
2019-05-30T15:29:16.315Z,22.40
2019-05-30T15:31:46.998Z,22.30
2019-05-30T15:34:18.569Z,22.10
2019-05-30T15:36:49.324Z,22.00
2019-05-30T15:39:32.479Z,22.10
2019-05-30T15:41:53.145Z,22.00
2019-05-30T15:44:24.846Z,21.90
2019-05-30T15:46:55.444Z,21.80
2019-05-30T15:49:26.048Z,21.70
2019-05-30T15:51:56.804Z,21.80
2019-05-30T15:54:28.500Z,21.70
2019-05-30T15:57:00.213Z,21.70
2019-05-30T15:59:30.813Z,21.70
2019-05-30T16:02:01.456Z,21.70
2019-05-30T16:04:33.190Z,21.60
2019-05-30T16:07:03.858Z,21.40
2019-05-30T16:09:46.337Z,21.50
2019-05-30T16:12:06.775Z,21.60
2019-05-30T16:14:38.412Z,21.70
2019-05-30T16:17:09.242Z,21.60
2019-05-30T16:19:39.828Z,21.60
2019-05-30T16:22:10.447Z,21.50
2019-05-30T16:24:42.231Z,21.60
2019-05-30T16:27:13.667Z,21.50
2019-05-30T16:29:44.481Z,21.60
2019-05-30T16:32:15.839Z,21.70
2019-05-30T16:34:46.504Z,21.70
2019-05-30T16:37:18.167Z,21.60
2019-05-30T16:40:04.371Z,21.60
2019-05-30T16:42:22.350Z,21.60
2019-05-30T16:44:53.217Z,21.40
2019-05-30T16:47:24.901Z,21.40
2019-05-30T16:49:55.574Z,21.40
2019-05-30T16:52:27.250Z,21.40
2019-05-30T16:54:58.142Z,21.50
2019-05-30T16:57:28.885Z,21.50
2019-05-30T16:59:59.497Z,21.50
2019-05-30T17:02:30.323Z,21.40
2019-05-30T17:05:01.990Z,21.40
2019-05-30T17:07:32.669Z,21.30
2019-05-30T17:10:03.260Z,21.30
2019-05-30T17:12:34.054Z,21.10
2019-05-30T17:15:09.513Z,21.10
2019-05-30T17:17:40.212Z,21.10
2019-05-30T17:20:13.196Z,21.10
2019-05-30T17:22:43.836Z,21.10
2019-05-30T17:25:17.038Z,21.00
2019-05-30T17:27:47.839Z,20.90
2019-05-30T17:30:19.622Z,20.80
2019-05-30T17:32:50.366Z,20.80
2019-05-30T17:35:22.060Z,20.80
2019-05-30T17:37:52.919Z,20.70
2019-05-30T17:40:39.062Z,20.70
2019-05-30T17:42:57.244Z,20.50
2019-05-30T17:45:29.332Z,20.60
2019-05-30T17:48:15.615Z,20.50
2019-05-30T17:50:32.566Z,20.40
2019-05-30T17:53:03.195Z,20.40
2019-05-30T17:55:34.039Z,20.30
2019-05-30T17:58:04.646Z,20.30
2019-05-30T18:00:35.256Z,20.20
2019-05-30T18:03:06.021Z,20.20
2019-05-30T18:05:37.299Z,20.10
2019-05-30T18:08:08.300Z,20.10
2019-05-30T18:10:53.252Z,20.00
2019-05-30T18:13:16.935Z,20.00
2019-05-30T18:15:49.094Z,20.00
2019-05-30T18:18:21.184Z,20.00
2019-05-30T18:20:51.783Z,19.90
2019-05-30T18:23:23.486Z,19.90
2019-05-30T18:25:55.281Z,19.90
2019-05-30T18:28:25.952Z,19.80
2019-05-30T18:30:56.459Z,19.80
2019-05-30T18:33:28.325Z,19.80
2019-05-30T18:35:59.038Z,19.70
2019-05-30T18:38:30.470Z,19.70
2019-05-30T18:41:10.845Z,19.60
2019-05-30T18:43:33.972Z,19.50
2019-05-30T18:46:04.693Z,19.50
2019-05-30T18:48:35.506Z,19.40
2019-05-30T18:51:07.649Z,19.40
2019-05-30T18:53:38.358Z,19.30
2019-05-30T18:56:09.145Z,19.30
2019-05-30T18:58:39.936Z,19.40
2019-05-30T19:01:10.690Z,19.30
2019-05-30T19:03:42.392Z,19.30
2019-05-30T19:06:12.923Z,19.20
2019-05-30T19:08:43.726Z,19.20
2019-05-30T19:11:27.386Z,19.10
2019-05-30T19:13:49.300Z,19.10
2019-05-30T19:16:21.125Z,19.00
2019-05-30T19:18:53.418Z,19.00
2019-05-30T19:21:24.278Z,19.10
2019-05-30T19:23:57.627Z,19.00
2019-05-30T19:26:28.649Z,19.00
2019-05-30T19:28:59.468Z,19.00
2019-05-30T19:31:30.588Z,18.90
2019-05-30T19:34:01.649Z,18.90
2019-05-30T19:36:33.063Z,18.90
2019-05-30T19:39:03.888Z,18.80
2019-05-30T19:41:49.012Z,18.70
2019-05-30T19:44:08.108Z,18.70
2019-05-30T19:46:38.713Z,18.60
2019-05-30T19:49:09.485Z,18.50
2019-05-30T19:51:42.050Z,18.40
2019-05-30T19:54:15.747Z,18.50
2019-05-30T19:56:46.268Z,18.40
2019-05-30T19:59:17.979Z,18.30
2019-05-30T20:01:48.490Z,18.30
2019-05-30T20:04:19.523Z,18.20
2019-05-30T20:06:50.794Z,18.20
2019-05-30T20:09:22.834Z,18.10
2019-05-30T20:12:03.084Z,18.10
2019-05-30T20:14:27.541Z,18.10
2019-05-30T20:16:58.126Z,18.00
2019-05-30T20:19:28.884Z,18.00
2019-05-30T20:22:00.580Z,18.00
2019-05-30T20:24:34.057Z,17.90
2019-05-30T20:27:05.752Z,17.90
2019-05-30T20:29:37.208Z,17.80
2019-05-30T20:32:07.914Z,17.80
2019-05-30T20:34:42.988Z,17.80
2019-05-30T20:37:15.237Z,17.70
2019-05-30T20:39:48.610Z,17.60
2019-05-30T20:42:19.952Z,17.60
2019-05-30T20:44:54.120Z,17.50
2019-05-30T20:47:24.765Z,17.50
2019-05-30T20:50:00.519Z,17.50
2019-05-30T20:52:38.666Z,17.50
2019-05-30T20:55:11.901Z,17.50
2019-05-30T20:57:44.744Z,17.50
2019-05-30T21:00:17.286Z,17.50
2019-05-30T21:02:51.635Z,17.40
2019-05-30T21:05:25.688Z,17.40
2019-05-30T21:07:57.183Z,17.40
2019-05-30T21:10:28.245Z,17.30
2019-05-30T21:13:01.276Z,17.40
2019-05-30T21:15:35.228Z,17.30
2019-05-30T21:18:06.697Z,17.30
2019-05-30T21:20:37.816Z,17.20
2019-05-30T21:23:08.379Z,17.20
2019-05-30T21:25:40.954Z,17.30
2019-05-30T21:28:11.604Z,17.20
2019-05-30T21:30:43.289Z,17.20
2019-05-30T21:33:13.977Z,17.20
2019-05-30T21:35:45.988Z,17.20
2019-05-30T21:38:16.614Z,17.10
2019-05-30T21:40:48.379Z,17.10
2019-05-30T21:43:19.349Z,17.10
2019-05-30T21:45:52.038Z,17.10
2019-05-30T21:48:22.525Z,17.00
2019-05-30T21:50:53.234Z,17.10
2019-05-30T21:53:23.756Z,17.10
2019-05-30T21:55:54.604Z,17.10
2019-05-30T21:58:25.292Z,17.10
2019-05-30T22:01:21.490Z,17.10
2019-05-30T22:03:52.310Z,17.00
2019-05-30T22:06:23.120Z,17.00
2019-05-30T22:08:53.723Z,17.10
2019-05-30T22:11:24.392Z,17.10
2019-05-30T22:13:56.147Z,17.20
2019-05-30T22:16:26.753Z,17.20
2019-05-30T22:18:57.350Z,17.20
2019-05-30T22:21:28.069Z,17.10
2019-05-30T22:23:59.821Z,17.20
2019-05-30T22:26:30.449Z,17.10
2019-05-30T22:29:01.029Z,17.10
2019-05-30T22:31:31.787Z,17.10
2019-05-30T22:34:02.297Z,17.10
2019-05-30T22:36:32.995Z,17.00
2019-05-30T22:39:03.738Z,17.00
2019-05-30T22:41:34.776Z,17.10
2019-05-30T22:44:06.454Z,17.10
2019-05-30T22:46:38.077Z,17.10
2019-05-30T22:49:08.606Z,17.00
2019-05-30T22:51:39.207Z,17.00
2019-05-30T22:54:10.782Z,17.00
2019-05-30T22:56:41.422Z,17.00
2019-05-30T22:59:13.038Z,16.90
2019-05-30T23:01:44.803Z,17.00
2019-05-30T23:04:16.493Z,17.10
2019-05-30T23:06:47.980Z,17.00
2019-05-30T23:09:18.809Z,17.00
2019-05-30T23:11:49.726Z,17.00
2019-05-30T23:14:22.494Z,17.00
2019-05-30T23:16:54.376Z,17.00
2019-05-30T23:19:25.097Z,17.00
2019-05-30T23:21:55.724Z,17.00
2019-05-30T23:24:28.396Z,17.00
2019-05-30T23:26:59.024Z,17.00
2019-05-30T23:29:29.532Z,16.90
2019-05-30T23:32:00.177Z,17.00
2019-05-30T23:34:30.801Z,16.90
2019-05-30T23:37:01.516Z,17.00
2019-05-30T23:39:32.018Z,17.00
2019-05-30T23:42:02.704Z,17.10
2019-05-30T23:44:34.392Z,17.20
2019-05-30T23:47:06.110Z,17.10
2019-05-30T23:49:36.703Z,17.00
2019-05-30T23:52:07.330Z,17.00
2019-05-30T23:54:38.955Z,17.00
2019-05-30T23:57:09.569Z,16.90
2019-05-30T23:59:40.231Z,16.90
